Alvarado, Texas
Current Conditions -  °F | °C
As of 12:47 PM on Thursday 23 Oct 2014 (Local Time) from KFWS Reporting Station
Clear Clear  
Wind Chill: 75°   Ceiling: Unl
Heat Index: 75°   Visibility: 10mi
Dew Point: 57°   Wind: 7mph
Humidity: 53%   Direction: 170°S
Pressure: 30.16"   Gusts: NA
Location:  32.41°N, 97.21°W
Report Text: KFWS 231747Z 17006KT 10SM CLR 24/14 A3016
Loading
Personal Weather Stations






























Interactive Weather Map New forecast layout! Learn more

10-Day Weather Forecast

Advertisements
Track Severe Weather on mobile